White Bluff, TN (37187)

9:09 PM CDT on April 01, 2015 (GMT -0500)
On the Trace | | Change Station
CLOSE
Current Station
Personal Weather Station
Location: White Bluff, TN
Elevation: 805 ft
Nearby Weather Stations

Elev 805 ft 36.11 °N, 87.21 °W | Updated 44 seconds ago

Partly Cloudy
Partly Cloudy
67.9 °F
Feels Like 67.9 °F
N
3.4
Wind Variable Wind from SE
Gusts 4.7 mph

Today
High -- | Low -- °F
--% Chance of Precip.
Yesterday
High -- | Low -- °F
Precip. -- in
6:35 AM 7:10 PM
Waxing Gibbous, 95% visible
Pressure 30.04 in
Visibility 10.0 miles
Clouds Scattered Clouds 25000 ft
Dew Point 34 °F
Humidity 28%
Rainfall 0.00 in
Snow Depth Not available.
UV 0 out of 12
Pollen 10.20 out of 12
Air Quality Not available.
Flu Activity Not available.
METAR KBNA 020153Z 00000KT 10SM SCT250 19/M01 A3005 RMK AO2 SLP172 T01891006

More Conditions Fewer Conditions

Pressure 30.04 in
Visibility 10.0 miles
Clouds Scattered Clouds 25000 ft
Dew Point 34 °F
Humidity 28%
Rainfall 0.00 in
Snow Depth Not available.
UV 0 out of 12
Pollen 10.20 out of 12
Air Quality Not available.
Flu Activity Not available.
METAR KBNA 020153Z 00000KT 10SM SCT250 19/M01 A3005 RMK AO2 SLP172 T01891006

More Conditions Fewer Conditions

10-Day Weather Forecast

Almanac

Astronomy

Apr. 01, 2015 Rise Set
Actual Time
Civil Twilight
Nautical Twilight
Astronomical Twilight
Moon
Length of Visible Light
Length of Day
Tomorrow will be .
, % of the Moon is Illuminated

Today's Extremes

State Highs State Lows

Community

WunderPhotos

Upload Photos

1,810,153 photos uploaded!

WunderBlogs® & News

Nearby

Air Quality

  Air Quality AQ Index Pollutant
Not available.

Snow Depth

Station Depth Elevation

Earthquake Activity

City Distance Mag. Time & Date
Minimum magnitude displayed is 2.5.

Coastal Water Temperatures

Place Temperature

Stations

Nearby Weather Stations

Station Location Temp. Windchill Dew Point Humidity Wind Precip. Elev Updated Type